Time;durP1;ratioP1;P1;durP2;ratioP2;P2;SDS_P1;SDS_P2;PMS_P1;PMS_P2;Temp;Humidity;BMP_temperature;BMP_pressure;BME280_temperature;BME280_humidity;BME280_pressure;Samples;Min_cycle;Max_cycle;Signal;HPM_P1;HPM_P2
2023/03/01 00:00:46;;;;;;;25.30;12.60;;;0.70;73.10;;;;;;4107615;28;20501;-83
2023/03/01 00:03:06;;;;;;;21.92;10.90;;;0.80;73.30;;;;;;4110828;28;20059;-83
2023/03/01 00:05:26;;;;;;;25.52;13.10;;;0.70;73.50;;;;;;4107818;28;20489;-84
2023/03/01 00:07:45;;;;;;;26.85;11.80;;;0.70;73.50;;;;;;4100337;28;20042;-84
2023/03/01 00:10:04;;;;;;;25.38;12.85;;;0.70;73.50;;;;;;4097308;28;20475;-84
2023/03/01 00:12:24;;;;;;;20.52;11.50;;;0.70;73.60;;;;;;4095876;28;20094;-84
2023/03/01 00:14:43;;;;;;;23.63;11.63;;;0.70;74.40;;;;;;4114008;28;20082;-83
2023/03/01 00:17:02;;;;;;;25.45;11.65;;;0.70;73.70;;;;;;4095242;28;20125;-84
2023/03/01 00:19:21;;;;;;;23.75;11.60;;;0.60;73.60;;;;;;4106348;28;20045;-84
2023/03/01 00:21:41;;;;;;;27.38;12.50;;;0.60;73.50;;;;;;4091820;28;20114;-84
2023/03/01 00:24:00;;;;;;;24.77;12.13;;;0.60;73.50;;;;;;4108912;28;20123;-84
2023/03/01 00:26:22;;;;;;;25.33;12.02;;;0.60;74.20;;;;;;4097576;28;20155;-83
2023/03/01 00:28:42;;;;;;;27.98;13.18;;;0.60;73.60;;;;;;4093671;28;20120;-83
2023/03/01 00:31:15;;;;;;;25.10;11.55;;;0.60;73.70;;;;;;4106785;28;20049;-84
2023/03/01 00:33:35;;;;;;;30.80;13.07;;;0.60;73.90;;;;;;4106470;28;20412;-83
2023/03/01 00:35:54;;;;;;;71.10;13.48;;;0.60;74.10;;;;;;4109715;28;20038;-84
2023/03/01 00:38:13;;;;;;;61.15;13.48;;;0.60;74.10;;;;;;4093711;28;20145;-84
2023/03/01 00:40:34;;;;;;;131.60;13.52;;;0.50;74.10;;;;;;4108950;28;20112;-84
2023/03/01 00:42:54;;;;;;;115.80;12.15;;;0.50;74.10;;;;;;4109569;28;20037;-84
2023/03/01 00:45:13;;;;;;;109.07;13.52;;;0.60;74.20;;;;;;4111222;28;20041;-83
2023/03/01 00:47:32;;;;;;;50.08;11.40;;;0.50;74.20;;;;;;4094902;28;20038;-83
2023/03/01 00:49:51;;;;;;;158.57;12.50;;;0.60;74.40;;;;;;4104660;28;20115;-84
2023/03/01 00:52:10;;;;;;;86.68;11.27;;;0.60;74.40;;;;;;4107384;28;20045;-83
2023/03/01 00:54:29;;;;;;;145.93;11.98;;;0.60;74.50;;;;;;4106178;28;20416;-83
2023/03/01 00:56:48;;;;;;;159.38;11.80;;;0.60;74.70;;;;;;4092177;28;20618;-84
2023/03/01 00:59:07;;;;;;;175.43;11.93;;;0.50;74.80;;;;;;4091670;28;20046;-83
2023/03/01 01:01:32;;;;;;;147.30;11.93;;;0.60;75.00;;;;;;4101384;28;20037;-84
2023/03/01 01:04:06;;;;;;;141.50;11.60;;;0.60;75.30;;;;;;4097612;28;20422;-83
2023/03/01 01:06:35;;;;;;;144.07;11.80;;;0.60;75.30;;;;;;4094446;28;20158;-84
2023/03/01 01:08:55;;;;;;;97.38;10.68;;;0.60;75.30;;;;;;4104780;28;20046;-83
2023/03/01 01:11:15;;;;;;;158.48;11.50;;;0.60;75.30;;;;;;4098682;28;20050;-83
2023/03/01 01:13:34;;;;;;;136.07;11.57;;;0.60;75.40;;;;;;4109332;28;20045;-83
2023/03/01 01:15:53;;;;;;;133.95;11.27;;;0.60;75.40;;;;;;4109109;28;20425;-84
2023/03/01 01:18:12;;;;;;;167.82;10.75;;;0.70;75.30;;;;;;4109581;28;20038;-83
2023/03/01 01:20:31;;;;;;;156.95;10.38;;;0.70;75.50;;;;;;4107565;28;20256;-84
2023/03/01 01:22:51;;;;;;;86.07;9.93;;;0.70;75.50;;;;;;4108096;28;20046;-84
2023/03/01 01:25:10;;;;;;;138.23;9.85;;;0.70;75.50;;;;;;4086877;28;20038;-83
2023/03/01 01:27:30;;;;;;;184.95;10.63;;;0.70;75.50;;;;;;4092659;28;20181;-84
2023/03/01 01:29:49;;;;;;;145.35;9.93;;;0.70;75.60;;;;;;4091773;28;20038;-84
2023/03/01 01:32:08;;;;;;;162.70;10.68;;;0.70;75.60;;;;;;4098474;28;20046;-83
2023/03/01 01:34:27;;;;;;;137.73;9.15;;;0.70;75.60;;;;;;4097725;28;20058;-84
2023/03/01 01:36:53;;;;;;;124.18;8.48;;;0.70;75.60;;;;;;4106807;28;20130;-83
2023/03/01 01:39:12;;;;;;;119.03;7.85;;;0.70;75.50;;;;;;4107199;28;20037;-84
2023/03/01 01:41:32;;;;;;;135.15;7.13;;;0.70;75.70;;;;;;4094135;28;20031;-83
2023/03/01 01:44:13;;;;;;;131.45;7.15;;;0.70;75.60;;;;;;4110327;28;20038;-84
2023/03/01 01:46:36;;;;;;;118.10;6.40;;;0.70;75.80;;;;;;4105558;28;20112;-84
2023/03/01 01:49:01;;;;;;;81.83;6.00;;;0.70;75.70;;;;;;4091501;28;20070;-83
2023/03/01 01:51:37;;;;;;;116.20;5.85;;;0.70;75.70;;;;;;4091300;28;20111;-84
2023/03/01 01:54:00;;;;;;;70.53;5.93;;;0.70;75.70;;;;;;4094861;28;20046;-83
2023/03/01 01:56:22;;;;;;;130.43;5.93;;;0.70;75.70;;;;;;4109891;28;20042;-84
2023/03/01 01:58:43;;;;;;;115.03;6.10;;;0.60;75.60;;;;;;4107633;28;20118;-83
2023/03/01 02:01:03;;;;;;;60.28;5.03;;;0.60;75.50;;;;;;4105429;28;20547;-84
2023/03/01 02:03:28;;;;;;;84.70;4.70;;;0.60;75.60;;;;;;4105840;28;20359;-83
2023/03/01 02:05:56;;;;;;;105.85;6.22;;;0.60;75.70;;;;;;4097204;28;20038;-83
2023/03/01 02:08:18;;;;;;;96.00;5.65;;;0.60;75.80;;;;;;4106956;28;20045;-83
2023/03/01 02:10:39;;;;;;;77.47;4.70;;;0.60;75.90;;;;;;4102840;28;20111;-83
2023/03/01 02:12:58;;;;;;;71.32;4.70;;;0.60;75.90;;;;;;4105356;28;20110;-83
2023/03/01 02:15:17;;;;;;;57.25;5.53;;;0.60;75.90;;;;;;4107461;28;20041;-83
2023/03/01 02:17:37;;;;;;;56.85;5.28;;;0.60;76.00;;;;;;4107881;28;20042;-84
2023/03/01 02:20:26;;;;;;;46.10;5.05;;;0.60;76.00;;;;;;4093793;28;20042;-84
2023/03/01 02:22:46;;;;;;;68.40;5.78;;;0.60;76.00;;;;;;4113701;28;20058;-83
2023/03/01 02:25:21;;;;;;;70.32;5.60;;;0.60;76.10;;;;;;4107567;28;20542;-84
2023/03/01 02:27:57;;;;;;;60.20;4.72;;;0.60;75.80;;;;;;4110866;28;20038;-83
2023/03/01 02:30:18;;;;;;;32.00;4.90;;;0.50;75.60;;;;;;4100393;28;20034;-83
2023/03/01 02:32:41;;;;;;;34.95;5.38;;;0.60;75.40;;;;;;4109135;28;20073;-83
2023/03/01 02:35:01;;;;;;;22.23;5.63;;;0.50;75.10;;;;;;4094594;28;20070;-84
2023/03/01 02:37:24;;;;;;;13.88;5.07;;;0.50;75.10;;;;;;4114879;28;20045;-83
2023/03/01 02:39:48;;;;;;;11.17;5.10;;;0.50;75.20;;;;;;4114101;28;20411;-83
2023/03/01 02:42:12;;;;;;;15.48;5.28;;;0.40;75.20;;;;;;4103154;28;20346;-83
2023/03/01 02:44:31;;;;;;;13.52;5.18;;;0.40;75.30;;;;;;4113833;28;20065;-84
2023/03/01 02:46:54;;;;;;;9.45;4.88;;;0.40;75.50;;;;;;4116079;28;20547;-83
2023/03/01 02:49:23;;;;;;;19.27;4.95;;;0.40;75.50;;;;;;4117353;28;20038;-83
2023/03/01 02:52:04;;;;;;;21.08;5.05;;;0.30;75.50;;;;;;4113857;28;20081;-84
2023/03/01 02:54:41;;;;;;;6.45;3.88;;;0.30;75.40;;;;;;4111224;28;20050;-83
2023/03/01 02:57:02;;;;;;;9.75;4.05;;;0.30;75.60;;;;;;4115587;28;20034;-85
2023/03/01 02:59:26;;;;;;;7.90;3.90;;;0.30;75.60;;;;;;4110616;28;20074;-83
2023/03/01 03:01:46;;;;;;;8.40;3.40;;;0.20;75.60;;;;;;4097340;28;20106;-83
2023/03/01 03:04:11;;;;;;;8.57;4.18;;;0.20;75.70;;;;;;4115637;28;20109;-84
2023/03/01 03:06:30;;;;;;;11.48;4.00;;;0.20;75.70;;;;;;4100805;28;20098;-83
2023/03/01 03:08:49;;;;;;;8.65;4.13;;;0.20;75.70;;;;;;4113285;28;20575;-83
2023/03/01 03:11:08;;;;;;;19.20;4.35;;;0.20;75.80;;;;;;4111186;28;20077;-83
2023/03/01 03:13:28;;;;;;;12.02;3.80;;;0.20;75.80;;;;;;4110599;28;20038;-84
2023/03/01 03:15:47;;;;;;;21.15;4.70;;;0.20;75.70;;;;;;4103465;28;20118;-84
2023/03/01 03:18:15;;;;;;;7.10;3.97;;;0.20;75.70;;;;;;4115150;28;20054;-84
2023/03/01 03:20:35;;;;;;;7.95;3.92;;;0.10;75.70;;;;;;4103473;28;20123;-83
2023/03/01 03:22:58;;;;;;;8.70;4.35;;;0.10;75.70;;;;;;4114536;28;20097;-84
2023/03/01 03:25:19;;;;;;;6.10;4.10;;;0.10;75.80;;;;;;4110624;28;20646;-84
2023/03/01 03:27:40;;;;;;;8.57;4.90;;;0.10;75.80;;;;;;4114139;28;20057;-84
2023/03/01 03:29:59;;;;;;;14.93;5.10;;;0.10;75.80;;;;;;4101452;28;20034;-84
2023/03/01 03:32:18;;;;;;;10.32;5.85;;;0.00;75.80;;;;;;4116333;28;20094;-83
2023/03/01 03:34:37;;;;;;;14.10;5.07;;;0.00;75.80;;;;;;4110691;28;20046;-83
2023/03/01 03:36:59;;;;;;;9.30;4.97;;;0.00;75.60;;;;;;4112872;28;20087;-83
2023/03/01 03:39:19;;;;;;;10.00;4.75;;;0.00;75.70;;;;;;4107121;28;20121;-85
2023/03/01 03:41:38;;;;;;;14.73;5.35;;;0.00;75.70;;;;;;4112313;28;20469;-83
2023/03/01 03:43:58;;;;;;;8.18;4.53;;;0.00;75.70;;;;;;4111411;28;20045;-83
2023/03/01 03:46:17;;;;;;;8.82;4.88;;;0.00;75.70;;;;;;4111702;28;20051;-84
2023/03/01 03:48:40;;;;;;;8.35;4.80;;;0.00;75.80;;;;;;4106794;28;20043;-83
2023/03/01 03:51:00;;;;;;;;;;;-0.10;75.20;;;;;;4113780;28;20090;-84
2023/03/01 03:53:21;;;;;;;12.18;4.25;;;0.00;76.50;;;;;;4111336;28;20416;-84
2023/03/01 03:55:40;;;;;;;14.82;4.50;;;-0.10;75.70;;;;;;4099678;28;20050;-84
2023/03/01 03:58:01;;;;;;;9.85;4.40;;;-0.10;75.60;;;;;;4109328;28;20056;-83
2023/03/01 04:00:23;;;;;;;25.20;4.60;;;-0.10;75.50;;;;;;4100169;28;20051;-83
2023/03/01 04:02:43;;;;;;;8.60;4.18;;;-0.10;75.50;;;;;;4100916;28;20046;-84
2023/03/01 04:05:02;;;;;;;13.98;4.55;;;-0.10;75.50;;;;;;4094395;28;20095;-83
2023/03/01 04:07:22;;;;;;;7.07;3.90;;;-0.20;75.30;;;;;;4099293;28;20057;-84
2023/03/01 04:09:43;;;;;;;9.05;4.05;;;-0.20;75.00;;;;;;4098035;28;20067;-85
2023/03/01 04:12:02;;;;;;;21.77;3.75;;;-0.20;75.00;;;;;;4108847;28;20033;-84
2023/03/01 04:14:22;;;;;;;14.95;4.07;;;-0.20;74.90;;;;;;4106962;28;20049;-83
2023/03/01 04:16:41;;;;;;;14.32;4.30;;;-0.30;74.70;;;;;;4109147;28;20088;-84
2023/03/01 04:19:00;;;;;;;9.77;4.00;;;-0.30;74.70;;;;;;4109745;28;20101;-85
2023/03/01 04:21:20;;;;;;;8.85;3.72;;;-0.40;74.70;;;;;;4109488;28;20038;-84
2023/03/01 04:23:40;;;;;;;12.25;4.03;;;-0.40;74.80;;;;;;4111520;28;20710;-84
2023/03/01 04:26:00;;;;;;;19.35;3.63;;;-0.40;75.00;;;;;;4107839;28;20050;-84
2023/03/01 04:28:36;;;;;;;24.10;3.55;;;-0.50;75.10;;;;;;4114134;28;20149;-84
2023/03/01 04:30:56;;;;;;;21.33;3.72;;;-0.50;75.10;;;;;;4112203;28;20055;-84
2023/03/01 04:33:15;;;;;;;73.45;4.05;;;-0.50;75.40;;;;;;4112127;28;20126;-84
2023/03/01 04:35:36;;;;;;;44.85;4.38;;;-0.60;75.40;;;;;;4106154;28;20418;-84
2023/03/01 04:37:55;;;;;;;45.58;4.00;;;-0.60;75.50;;;;;;4099333;28;20114;-83
2023/03/01 04:40:16;;;;;;;50.75;4.10;;;-0.60;75.60;;;;;;4113065;28;20460;-84
2023/03/01 04:42:35;;;;;;;6.10;2.90;;;-0.60;75.80;;;;;;4111066;28;20077;-86
2023/03/01 04:44:54;;;;;;;46.72;4.30;;;-0.60;75.80;;;;;;4112883;28;20053;-84
2023/03/01 04:47:13;;;;;;;29.48;3.47;;;-0.70;75.80;;;;;;4097415;28;20047;-83
2023/03/01 04:49:33;;;;;;;26.88;3.42;;;-0.60;76.00;;;;;;4112302;28;20454;-84
2023/03/01 04:51:52;;;;;;;20.63;3.35;;;-0.60;76.00;;;;;;4100216;28;20141;-83
2023/03/01 04:54:11;;;;;;;59.35;4.40;;;-0.60;76.00;;;;;;4097930;28;20042;-85
2023/03/01 04:56:30;;;;;;;47.45;4.22;;;-0.60;76.00;;;;;;4111076;28;20114;-84
2023/03/01 04:58:53;;;;;;;54.00;3.92;;;-0.60;75.90;;;;;;4109892;28;20053;-85
2023/03/01 05:01:17;;;;;;;61.55;4.35;;;-0.50;76.00;;;;;;4094483;28;20046;-84
2023/03/01 05:03:36;;;;;;;75.53;4.45;;;-0.60;76.00;;;;;;4111082;28;20101;-84
2023/03/01 05:05:59;;;;;;;54.78;4.15;;;-0.60;76.00;;;;;;4097764;28;20085;-84
2023/03/01 05:08:20;;;;;;;61.95;4.03;;;-0.50;76.10;;;;;;4112117;28;20046;-84
2023/03/01 05:10:40;;;;;;;45.33;4.40;;;-0.50;76.20;;;;;;4111417;28;20100;-84
2023/03/01 05:13:00;;;;;;;38.70;3.40;;;-0.50;76.20;;;;;;4113670;28;20030;-83
2023/03/01 05:15:21;;;;;;;33.97;4.00;;;-0.50;76.20;;;;;;4112121;28;20093;-84
2023/03/01 05:17:41;;;;;;;59.30;4.53;;;-0.50;76.40;;;;;;4118369;28;20098;-83
2023/03/01 05:20:00;;;;;;;66.15;4.15;;;-0.50;76.40;;;;;;4113582;28;20125;-84
2023/03/01 05:22:20;;;;;;;70.05;4.35;;;-0.50;76.40;;;;;;4114426;28;20034;-84
2023/03/01 05:24:39;;;;;;;98.07;4.72;;;-0.50;76.40;;;;;;4117025;28;20069;-84
2023/03/01 05:27:00;;;;;;;106.55;5.63;;;-0.50;76.40;;;;;;4097664;28;20085;-84
2023/03/01 05:29:24;;;;;;;81.28;4.30;;;-0.50;76.40;;;;;;4111059;28;20037;-84
2023/03/01 05:31:44;;;;;;;67.03;4.07;;;-0.50;77.00;;;;;;4110518;28;20071;-84
2023/03/01 05:34:04;;;;;;;86.82;4.38;;;-0.50;76.20;;;;;;4110191;28;20038;-83
2023/03/01 05:36:23;;;;;;;129.20;5.82;;;-0.50;76.30;;;;;;4107473;28;20074;-84
2023/03/01 05:38:42;;;;;;;53.05;3.78;;;-0.50;76.20;;;;;;4099887;28;20101;-84
2023/03/01 05:41:03;;;;;;;126.85;5.65;;;-0.50;76.10;;;;;;4116840;28;20468;-84
2023/03/01 05:43:23;;;;;;;50.00;4.05;;;-0.50;76.20;;;;;;4095716;28;20050;-84
2023/03/01 05:45:43;;;;;;;58.65;4.57;;;-0.50;76.20;;;;;;4113139;28;20081;-83
2023/03/01 05:48:02;;;;;;;43.08;4.10;;;-0.50;76.20;;;;;;4111052;28;20049;-84
2023/03/01 05:50:25;;;;;;;7.85;3.28;;;-0.50;76.50;;;;;;4113134;28;20125;-85
2023/03/01 05:52:52;;;;;;;22.67;4.00;;;-0.50;77.00;;;;;;4098557;28;20042;-85
2023/03/01 05:55:11;;;;;;;59.88;4.68;;;-0.50;76.20;;;;;;4110775;28;20042;-84
2023/03/01 05:57:30;;;;;;;73.65;5.05;;;-0.50;76.20;;;;;;4105292;28;20145;-84
2023/03/01 05:59:50;;;;;;;36.33;4.20;;;-0.50;76.10;;;;;;4103410;28;20126;-84
2023/03/01 06:02:09;;;;;;;148.07;6.60;;;-0.50;76.10;;;;;;4105377;28;20560;-84
2023/03/01 06:04:28;;;;;;;45.88;4.05;;;-0.50;76.20;;;;;;4109099;28;20042;-84
2023/03/01 06:06:47;;;;;;;96.90;5.00;;;-0.60;76.20;;;;;;4096828;28;20050;-84
2023/03/01 06:09:08;;;;;;;104.15;5.25;;;-0.60;76.30;;;;;;4107750;28;20140;-83
2023/03/01 06:11:28;;;;;;;72.85;4.00;;;-0.60;76.30;;;;;;4099791;28;20038;-86
2023/03/01 06:13:47;;;;;;;50.38;4.30;;;-0.60;76.40;;;;;;4116058;28;20093;-84
2023/03/01 06:16:06;;;;;;;33.38;3.95;;;-0.60;76.40;;;;;;4108771;28;20041;-83
2023/03/01 06:18:26;;;;;;;186.60;6.40;;;-0.60;76.30;;;;;;4096194;28;20102;-84
2023/03/01 06:20:51;;;;;;;54.30;3.80;;;-0.60;76.30;;;;;;4092458;28;20338;-83
2023/03/01 06:23:10;;;;;;;105.65;6.00;;;-0.60;76.30;;;;;;4109131;28;20041;-85
2023/03/01 06:25:30;;;;;;;76.25;4.03;;;-0.60;76.40;;;;;;4108419;28;20042;-83
2023/03/01 06:27:49;;;;;;;100.15;5.70;;;-0.60;76.40;;;;;;4095519;28;20600;-84
2023/03/01 06:30:10;;;;;;;62.03;4.25;;;-0.60;76.40;;;;;;4097428;28;20152;-83
2023/03/01 06:32:30;;;;;;;82.25;4.07;;;-0.70;76.30;;;;;;4109796;28;20037;-84
2023/03/01 06:34:46;;;;;;;98.53;5.22;;;-0.70;76.30;;;;;;4108544;28;20041;-85
2023/03/01 06:37:07;;;;;;;65.55;4.55;;;-0.70;76.30;;;;;;4095421;28;20432;-83
2023/03/01 06:39:27;;;;;;;94.78;4.70;;;-0.70;76.30;;;;;;4108903;28;20030;-84
2023/03/01 06:41:47;;;;;;;123.13;5.40;;;-0.80;76.20;;;;;;4108897;28;20033;-84
2023/03/01 06:44:06;;;;;;;244.90;7.57;;;-0.80;76.50;;;;;;4108002;28;20042;-84
2023/03/01 06:46:07;;;;;;;131.38;4.78;;;-0.80;76.40;;;;;;4106905;28;20750;-85
2023/03/01 06:48:08;;;;;;;108.88;5.30;;;-0.80;76.50;;;;;;4077554;29;20016;-84
2023/03/01 06:50:10;;;;;;;127.28;5.43;;;-0.80;76.60;;;;;;4095855;28;20110;-85
2023/03/01 06:52:10;;;;;;;111.97;5.30;;;-0.90;76.60;;;;;;4093365;28;20480;-83
2023/03/01 06:54:11;;;;;;;136.05;5.82;;;-0.80;76.80;;;;;;4094904;28;20112;-84
2023/03/01 06:56:12;;;;;;;122.57;4.38;;;-0.80;77.60;;;;;;4077814;29;20114;-83
2023/03/01 06:58:12;;;;;;;179.82;6.57;;;-0.80;77.00;;;;;;4081570;28;20059;-84
2023/03/01 07:00:14;;;;;;;178.00;6.60;;;-0.90;77.00;;;;;;4092988;28;20247;-83
2023/03/01 07:02:15;;;;;;;114.43;5.45;;;-0.90;77.00;;;;;;4094500;28;20035;-84
2023/03/01 07:04:15;;;;;;;96.55;5.10;;;-0.90;77.10;;;;;;4076785;29;20091;-85
2023/03/01 07:06:19;;;;;;;36.63;3.50;;;-0.80;77.30;;;;;;4107613;28;20090;-85
2023/03/01 07:08:20;;;;;;;147.90;6.00;;;-0.90;77.40;;;;;;4111645;28;20057;-84
2023/03/01 07:10:21;;;;;;;110.18;6.05;;;-0.90;77.50;;;;;;4113175;28;20035;-84
2023/03/01 07:12:21;;;;;;;119.88;5.72;;;-0.90;77.50;;;;;;4093905;28;20103;-83
2023/03/01 07:14:24;;;;;;;130.82;5.43;;;-0.90;77.70;;;;;;4110479;28;20027;-84
2023/03/01 07:16:24;;;;;;;114.93;5.40;;;-0.90;77.70;;;;;;4079281;29;20123;-83
2023/03/01 07:18:25;;;;;;;118.45;5.55;;;-0.80;77.90;;;;;;4076408;29;20286;-84
2023/03/01 07:20:29;;;;;;;46.58;3.42;;;-0.80;78.00;;;;;;4093641;28;20161;-84
2023/03/01 07:22:29;;;;;;;168.88;6.70;;;-0.80;78.00;;;;;;4081903;29;20020;-84
2023/03/01 07:24:30;;;;;;;27.95;3.08;;;-0.80;78.10;;;;;;4098441;28;20121;-84
2023/03/01 07:26:34;;;;;;;79.82;5.03;;;-0.80;78.10;;;;;;4093288;28;20032;-84
2023/03/01 07:28:39;;;;;;;39.83;3.75;;;-0.70;78.20;;;;;;4089588;28;20058;-83
2023/03/01 07:30:40;;;;;;;35.00;3.40;;;-0.70;78.30;;;;;;4094389;28;20039;-85
2023/03/01 07:32:40;;;;;;;45.00;3.58;;;-0.80;78.40;;;;;;4094234;28;20606;-84
2023/03/01 07:34:41;;;;;;;33.05;3.25;;;-0.80;78.40;;;;;;4080432;29;20039;-84
2023/03/01 07:36:43;;;;;;;43.05;4.10;;;-0.70;78.50;;;;;;4095096;28;20035;-85
2023/03/01 07:38:43;;;;;;;63.83;5.00;;;-0.60;78.60;;;;;;4085683;29;20027;-83
2023/03/01 07:40:44;;;;;;;68.82;4.55;;;-0.70;78.60;;;;;;4088982;28;22175;-83
2023/03/01 07:42:45;;;;;;;64.63;4.53;;;-0.70;78.50;;;;;;4091014;28;20106;-84
2023/03/01 07:44:46;;;;;;;48.13;4.32;;;-0.50;78.70;;;;;;4093194;28;20458;-84
2023/03/01 07:46:49;;;;;;;49.95;4.05;;;-0.60;78.60;;;;;;4105393;28;20020;-83
2023/03/01 07:48:49;;;;;;;86.82;5.15;;;-0.60;78.60;;;;;;4109076;28;20093;-84
2023/03/01 07:50:50;;;;;;;40.83;3.75;;;-0.60;78.60;;;;;;4079456;29;20814;-83
2023/03/01 07:52:56;;;;;;;49.38;3.72;;;-0.60;78.70;;;;;;4096353;28;20031;-84
2023/03/01 07:54:57;;;;;;;34.45;4.25;;;-0.40;78.90;;;;;;4112204;28;20028;-83
2023/03/01 07:56:58;;;;;;;17.08;3.67;;;-0.50;79.50;;;;;;4081473;29;20035;-84
2023/03/01 07:58:59;;;;;;;82.65;5.22;;;-0.40;78.90;;;;;;4091151;28;21334;-83
2023/03/01 08:01:07;;;;;;;47.60;4.80;;;-0.50;79.00;;;;;;4109976;28;20519;-83
2023/03/01 08:03:08;;;;;;;35.63;4.40;;;-0.40;79.00;;;;;;4109664;28;20154;-84
2023/03/01 08:05:10;;;;;;;63.17;5.25;;;-0.50;78.80;;;;;;4097451;28;20652;-84
2023/03/01 08:07:10;;;;;;;33.80;3.58;;;-0.40;78.90;;;;;;4095515;28;20023;-84
2023/03/01 08:09:11;;;;;;;25.80;4.20;;;-0.30;78.90;;;;;;4109939;28;20033;-83
2023/03/01 08:11:14;;;;;;;21.95;3.95;;;-0.30;78.90;;;;;;4094207;28;20082;-84
2023/03/01 08:13:14;;;;;;;88.72;5.47;;;-0.30;79.00;;;;;;4109770;28;20022;-83
2023/03/01 08:15:15;;;;;;;84.35;5.20;;;-0.30;78.90;;;;;;4079357;29;20046;-83
2023/03/01 08:17:16;;;;;;;32.13;4.00;;;-0.40;78.70;;;;;;4094186;28;20122;-84
2023/03/01 08:19:17;;;;;;;51.05;4.30;;;-0.30;78.90;;;;;;4104371;28;20086;-83
2023/03/01 08:21:18;;;;;;;28.75;3.58;;;-0.30;78.90;;;;;;4112343;28;20062;-83
2023/03/01 08:23:19;;;;;;;50.70;4.45;;;-0.30;78.80;;;;;;4096728;28;20028;-83
2023/03/01 08:25:19;;;;;;;30.17;3.70;;;-0.30;78.90;;;;;;4112647;28;20037;-83
2023/03/01 08:27:20;;;;;;;33.53;3.70;;;-0.20;79.10;;;;;;4107529;28;20027;-84
2023/03/01 08:29:21;;;;;;;75.50;4.97;;;-0.30;79.00;;;;;;4093428;28;20123;-83
2023/03/01 08:31:28;;;;;;;30.52;3.00;;;-0.20;79.00;;;;;;4110226;28;20027;-84
2023/03/01 08:33:29;;;;;;;11.52;3.17;;;-0.20;78.90;;;;;;4079372;29;20235;-84
2023/03/01 08:35:31;;;;;;;49.58;3.95;;;-0.20;78.90;;;;;;4080842;29;20051;-84
2023/03/01 08:37:33;;;;;;;15.73;3.22;;;-0.20;79.10;;;;;;4104286;28;20322;-84
2023/03/01 08:39:36;;;;;;;48.08;4.18;;;-0.10;79.20;;;;;;4087219;28;20044;-84
2023/03/01 08:41:37;;;;;;;49.70;4.32;;;-0.10;79.40;;;;;;4107702;28;20042;-84
2023/03/01 08:43:38;;;;;;;39.10;3.90;;;-0.20;79.30;;;;;;4094779;28;20086;-85
2023/03/01 08:45:38;;;;;;;37.63;4.05;;;0.00;79.40;;;;;;4078280;29;20118;-84
2023/03/01 08:47:39;;;;;;;57.20;4.30;;;-0.10;79.40;;;;;;4095184;28;20046;-84
2023/03/01 08:49:40;;;;;;;70.60;4.50;;;-0.10;79.50;;;;;;4091973;28;20087;-83
2023/03/01 08:51:41;;;;;;;97.63;6.35;;;0.10;79.70;;;;;;4088866;28;20031;-84
2023/03/01 08:53:42;;;;;;;41.97;4.32;;;0.00;79.70;;;;;;4096487;28;20023;-83
2023/03/01 08:55:42;;;;;;;36.83;4.82;;;0.00;79.70;;;;;;4106814;28;20425;-84
2023/03/01 08:57:43;;;;;;;61.15;5.40;;;0.10;79.90;;;;;;4093523;28;20047;-84
2023/03/01 08:59:44;;;;;;;68.65;5.18;;;0.10;80.60;;;;;;4070443;29;20120;-84
2023/03/01 09:01:45;;;;;;;38.30;5.07;;;0.20;79.90;;;;;;4110994;28;20049;-84
2023/03/01 09:03:46;;;;;;;56.70;5.30;;;0.30;80.00;;;;;;4092718;28;20113;-83
2023/03/01 09:05:46;;;;;;;41.75;4.93;;;0.20;80.00;;;;;;4082862;29;20035;-83
2023/03/01 09:07:47;;;;;;;35.75;5.10;;;0.30;80.00;;;;;;4106435;28;20641;-84
2023/03/01 09:09:48;;;;;;;63.60;6.00;;;0.40;80.00;;;;;;4111848;28;20069;-84
2023/03/01 09:11:49;;;;;;;50.83;5.65;;;0.30;79.90;;;;;;4090116;28;20032;-84
2023/03/01 09:13:51;;;;;;;75.60;6.35;;;0.40;79.80;;;;;;4106678;28;20137;-85
2023/03/01 09:15:54;;;;;;;60.88;6.22;;;0.40;80.60;;;;;;4077759;29;20038;-83
2023/03/01 09:17:55;;;;;;;44.80;5.93;;;0.50;80.00;;;;;;4099290;28;20548;-85
2023/03/01 09:19:56;;;;;;;17.50;6.07;;;0.50;80.00;;;;;;4111193;28;20035;-83
2023/03/01 09:21:58;;;;;;;31.02;5.68;;;0.50;80.00;;;;;;4090805;28;20034;-83
2023/03/01 09:23:58;;;;;;;28.15;5.25;;;0.50;80.00;;;;;;4106637;28;20785;-83
2023/03/01 09:26:02;;;;;;;58.05;5.88;;;0.60;80.10;;;;;;4093104;28;20031;-84
2023/03/01 09:28:03;;;;;;;25.45;6.40;;;0.60;80.10;;;;;;4077104;29;20035;-84
2023/03/01 09:30:04;;;;;;;17.63;5.68;;;0.60;80.30;;;;;;4093825;28;20117;-85
2023/03/01 09:32:06;;;;;;;33.33;6.03;;;0.70;80.30;;;;;;4111528;28;20034;-85
2023/03/01 09:34:08;;;;;;;31.88;5.88;;;0.70;80.10;;;;;;4096645;28;20647;-84
2023/03/01 09:36:13;;;;;;;13.68;5.38;;;0.70;80.10;;;;;;4107844;28;20031;-83
2023/03/01 09:38:14;;;;;;;25.98;5.72;;;0.80;80.40;;;;;;4104408;28;20027;-83
2023/03/01 09:40:20;;;;;;;24.33;5.22;;;0.80;80.20;;;;;;4091544;28;20067;-85
2023/03/01 09:42:21;;;;;;;25.55;6.05;;;0.90;80.30;;;;;;4101402;28;20030;-84
2023/03/01 09:44:49;;;;;;;47.92;7.53;;;0.90;80.40;;;;;;4106266;28;20049;-84
2023/03/01 09:46:51;;;;;;;30.50;7.10;;;0.90;80.30;;;;;;4103412;28;20058;-84
2023/03/01 09:48:57;;;;;;;12.82;6.35;;;0.90;80.10;;;;;;4109107;28;20030;-84
2023/03/01 09:50:58;;;;;;;22.27;6.05;;;1.00;80.10;;;;;;4086609;28;20498;-84
2023/03/01 09:53:21;;;;;;;41.33;7.15;;;1.00;80.10;;;;;;4105134;28;20054;-82
2023/03/01 09:55:38;;;;;;;30.95;7.25;;;1.10;80.40;;;;;;4088103;28;20055;-84
2023/03/01 09:57:59;;;;;;;28.70;7.25;;;1.10;80.20;;;;;;4104191;28;20066;-83
2023/03/01 10:00:30;;;;;;;43.47;7.25;;;1.10;80.30;;;;;;4102713;28;20049;-83
2023/03/01 10:02:44;;;;;;;47.58;7.53;;;1.20;80.40;;;;;;4102849;28;20125;-83
2023/03/01 10:04:48;;;;;;;25.95;6.55;;;1.20;80.10;;;;;;4091973;28;20043;-83
2023/03/01 10:07:15;;;;;;;16.23;6.88;;;1.30;80.10;;;;;;4105153;28;20521;-85
2023/03/01 10:09:19;;;;;;;28.40;7.18;;;1.30;80.20;;;;;;4077275;28;20035;-83
2023/03/01 10:11:36;;;;;;;11.30;5.97;;;1.30;80.10;;;;;;4074484;29;21113;-83
2023/03/01 10:13:52;;;;;;;12.07;6.30;;;1.30;79.90;;;;;;4103246;28;20029;-84
2023/03/01 10:16:03;;;;;;;16.90;6.78;;;1.40;80.00;;;;;;4101848;28;20058;-84
2023/03/01 10:18:28;;;;;;;14.10;7.50;;;1.40;80.10;;;;;;4107371;28;20023;-84
2023/03/01 10:20:43;;;;;;;15.52;8.30;;;1.40;79.90;;;;;;4085851;28;20046;-84
2023/03/01 10:22:50;;;;;;;17.73;7.45;;;1.50;79.80;;;;;;4095841;28;20042;-85
2023/03/01 10:24:52;;;;;;;12.05;6.30;;;1.50;79.80;;;;;;4109898;28;20507;-84
2023/03/01 10:27:17;;;;;;;8.45;5.82;;;1.50;79.70;;;;;;4106157;28;20488;-84
2023/03/01 10:29:24;;;;;;;10.45;6.78;;;1.50;79.70;;;;;;4076186;29;20028;-84
2023/03/01 10:31:36;;;;;;;9.63;6.85;;;1.60;79.90;;;;;;4106193;28;20085;-84
2023/03/01 10:33:41;;;;;;;10.63;6.53;;;1.60;80.10;;;;;;4097311;28;20090;-84
2023/03/01 10:35:42;;;;;;;14.75;6.80;;;1.70;80.40;;;;;;4098993;28;20039;-84
2023/03/01 10:37:57;;;;;;;10.88;6.82;;;1.70;80.40;;;;;;4088604;28;20035;-83
2023/03/01 10:40:09;;;;;;;17.35;7.25;;;1.70;80.50;;;;;;4108250;28;20038;-84
2023/03/01 10:42:26;;;;;;;10.82;6.57;;;1.80;80.50;;;;;;4072419;29;20032;-84
2023/03/01 10:44:43;;;;;;;11.25;7.40;;;1.90;80.30;;;;;;4110894;28;20031;-84
2023/03/01 10:46:44;;;;;;;9.80;6.50;;;1.90;80.50;;;;;;4099383;28;20145;-84
2023/03/01 10:48:45;;;;;;;9.52;6.18;;;1.90;80.40;;;;;;4097390;28;20063;-84
2023/03/01 10:50:48;;;;;;;9.93;6.70;;;2.00;80.40;;;;;;4109335;28;20420;-83
2023/03/01 10:53:03;;;;;;;30.00;19.77;;;2.00;80.60;;;;;;4109801;28;20043;-84
2023/03/01 10:55:30;;;;;;;11.73;8.63;;;2.10;79.80;;;;;;4114166;28;20151;-84
2023/03/01 10:57:40;;;;;;;10.52;7.47;;;2.20;80.50;;;;;;4098932;28;20028;-84
2023/03/01 10:59:40;;;;;;;11.48;7.57;;;2.20;80.30;;;;;;4095224;28;20035;-83
2023/03/01 11:01:42;;;;;;;9.77;6.50;;;2.30;80.50;;;;;;4089898;29;20071;-84
2023/03/01 11:03:43;;;;;;;8.88;6.18;;;2.30;80.30;;;;;;4098218;28;20027;-84
2023/03/01 11:05:53;;;;;;;9.63;6.45;;;2.40;80.20;;;;;;4104638;28;20042;-84
2023/03/01 11:07:56;;;;;;;11.20;6.85;;;2.40;80.10;;;;;;4107885;28;20019;-83
2023/03/01 11:09:57;;;;;;;10.73;6.70;;;2.50;80.10;;;;;;4073492;29;20032;-84
2023/03/01 11:12:00;;;;;;;12.68;7.90;;;2.50;80.00;;;;;;4079553;29;20062;-86
2023/03/01 11:14:23;;;;;;;11.07;7.20;;;2.50;79.90;;;;;;4079876;29;20112;-83
2023/03/01 11:16:28;;;;;;;10.40;6.47;;;2.60;80.10;;;;;;4106267;28;20069;-84
2023/03/01 11:18:31;;;;;;;10.93;6.53;;;2.60;80.10;;;;;;4095038;28;20445;-84
2023/03/01 11:20:34;;;;;;;;;;;2.70;80.10;;;;;;4093877;28;20099;-84
2023/03/01 11:22:36;;;;;;;10.93;6.80;;;2.70;80.60;;;;;;4100477;28;19926;-84
2023/03/01 11:24:53;;;;;;;8.48;5.88;;;2.80;79.70;;;;;;4111891;28;20035;-83
2023/03/01 11:26:55;;;;;;;8.98;6.18;;;2.80;79.40;;;;;;4107419;28;20117;-83
2023/03/01 11:29:01;;;;;;;9.70;6.40;;;2.80;79.60;;;;;;4112911;28;20031;-84
2023/03/01 11:31:12;;;;;;;10.25;6.32;;;2.90;79.30;;;;;;4083448;29;20035;-84